Time;durP1;ratioP1;P1;durP2;ratioP2;P2;SDS_P1;SDS_P2;PMS_P1;PMS_P2;Temp;Humidity;BMP_temperature;BMP_pressure;BME280_temperature;BME280_humidity;BME280_pressure;Samples;Min_cycle;Max_cycle;Signal;HPM_P1;HPM_P2
2021/06/08 00:00:21;;;;;;;12.63;11.32;;;21.30;59.50;;;;;;5078835;28;20192;-84
2021/06/08 00:02:48;;;;;;;12.85;11.57;;;21.10;59.40;;;;;;5061634;28;20196;-86
2021/06/08 00:05:15;;;;;;;12.13;10.93;;;21.20;59.50;;;;;;5062323;28;20645;-84
2021/06/08 00:07:45;;;;;;;11.88;10.73;;;21.20;59.50;;;;;;5080411;28;20520;-84
2021/06/08 00:10:11;;;;;;;11.75;10.63;;;21.20;59.50;;;;;;5061452;28;20188;-84
2021/06/08 00:12:37;;;;;;;13.52;12.13;;;21.20;59.50;;;;;;5078736;28;20176;-85
2021/06/08 00:15:04;;;;;;;13.05;11.70;;;21.20;59.50;;;;;;5061956;28;20215;-86
2021/06/08 00:17:30;;;;;;;12.15;10.95;;;21.20;59.60;;;;;;5061839;28;20169;-85
2021/06/08 00:19:57;;;;;;;12.90;11.50;;;21.20;59.60;;;;;;5079202;28;20236;-85
2021/06/08 00:22:23;;;;;;;12.30;11.10;;;21.20;59.60;;;;;;5079268;28;20150;-85
2021/06/08 00:24:49;;;;;;;12.98;11.68;;;21.20;59.60;;;;;;5062213;28;20169;-84
2021/06/08 00:27:15;;;;;;;12.02;10.82;;;21.20;59.60;;;;;;5079152;28;20301;-84
2021/06/08 00:29:41;;;;;;;12.57;11.35;;;21.20;59.60;;;;;;5062291;28;20548;-84
2021/06/08 00:32:07;;;;;;;12.75;11.45;;;21.20;59.60;;;;;;5063154;28;20153;-84
2021/06/08 00:34:37;;;;;;;13.13;11.82;;;21.20;59.60;;;;;;5061859;28;20208;-85
2021/06/08 00:37:07;;;;;;;13.43;12.10;;;21.20;59.50;;;;;;5078122;28;20192;-85
2021/06/08 00:39:34;;;;;;;12.93;11.73;;;21.20;59.60;;;;;;5061193;28;20173;-84
2021/06/08 00:42:01;;;;;;;13.27;11.88;;;21.20;59.60;;;;;;5060628;28;20187;-85
2021/06/08 00:44:31;;;;;;;12.13;10.93;;;21.10;59.60;;;;;;5061693;28;20185;-84
2021/06/08 00:46:58;;;;;;;12.10;10.90;;;21.10;59.50;;;;;;5082159;28;20196;-85
2021/06/08 00:49:24;;;;;;;12.30;11.10;;;21.10;59.60;;;;;;5065685;28;20177;-84
2021/06/08 00:51:54;;;;;;;12.30;11.10;;;21.10;59.60;;;;;;5081723;28;20269;-84
2021/06/08 00:54:24;;;;;;;12.80;11.50;;;21.10;59.60;;;;;;5064949;28;20219;-84
2021/06/08 00:56:55;;;;;;;12.75;11.55;;;21.20;59.60;;;;;;5048045;28;20594;-85
2021/06/08 00:59:26;;;;;;;12.80;11.50;;;21.10;59.60;;;;;;5065519;28;20185;-84
2021/06/08 01:01:55;;;;;;;12.38;11.18;;;21.20;59.60;;;;;;5048292;28;20185;-85
2021/06/08 01:04:23;;;;;;;12.70;11.40;;;21.20;59.60;;;;;;5065140;28;20204;-84
2021/06/08 01:06:52;;;;;;;13.00;11.73;;;21.10;59.60;;;;;;5065149;28;20184;-85
2021/06/08 01:09:22;;;;;;;13.07;11.68;;;21.10;59.60;;;;;;5048208;28;20180;-85
2021/06/08 01:11:52;;;;;;;12.48;11.27;;;21.10;59.70;;;;;;5048036;28;20726;-84
2021/06/08 01:14:20;;;;;;;12.35;11.15;;;21.10;59.60;;;;;;5065228;28;20209;-85
2021/06/08 01:16:48;;;;;;;13.13;11.82;;;21.10;59.70;;;;;;5047950;28;20196;-85
2021/06/08 01:19:17;;;;;;;12.80;11.00;;;21.10;59.70;;;;;;5064593;28;20185;-85
2021/06/08 01:21:45;;;;;;;13.23;11.90;;;21.10;59.70;;;;;;5081102;28;20260;-85
2021/06/08 01:24:11;;;;;;;13.23;11.93;;;21.10;59.70;;;;;;5064810;28;20242;-85
2021/06/08 01:26:44;;;;;;;12.18;10.98;;;21.10;59.70;;;;;;5081614;28;20165;-84
2021/06/08 01:29:11;;;;;;;12.43;11.13;;;21.10;59.70;;;;;;5064517;28;20230;-84
2021/06/08 01:31:37;;;;;;;13.10;11.80;;;21.10;59.70;;;;;;5082057;28;20181;-84
2021/06/08 01:34:07;;;;;;;12.68;11.45;;;21.10;59.70;;;;;;5064825;28;20190;-85
2021/06/08 01:36:38;;;;;;;12.90;11.60;;;21.10;59.70;;;;;;5064079;28;20178;-85
2021/06/08 01:39:09;;;;;;;13.35;12.10;;;21.00;59.60;;;;;;5064915;28;20204;-84
2021/06/08 01:41:39;;;;;;;13.13;11.82;;;21.10;59.80;;;;;;5080863;28;20178;-85
2021/06/08 01:44:07;;;;;;;13.00;11.70;;;21.10;59.70;;;;;;5065019;28;20251;-84
2021/06/08 01:46:38;;;;;;;13.57;12.20;;;21.00;59.80;;;;;;5080745;28;20241;-84
2021/06/08 01:49:05;;;;;;;13.02;11.73;;;21.00;59.80;;;;;;5063988;28;20705;-84
2021/06/08 01:51:58;;;;;;;12.88;11.57;;;21.00;59.70;;;;;;5063319;28;20244;-85
2021/06/08 01:54:36;;;;;;;13.13;11.82;;;21.10;59.70;;;;;;5049150;28;20213;-85
2021/06/08 01:57:30;;;;;;;13.80;12.40;;;21.10;59.80;;;;;;5063167;28;20640;-84
2021/06/08 02:00:05;;;;;;;12.38;11.18;;;21.10;59.70;;;;;;5081163;28;20174;-84
2021/06/08 02:02:43;;;;;;;13.05;11.75;;;21.00;59.80;;;;;;5063388;28;20657;-85
2021/06/08 02:05:49;;;;;;;12.35;11.15;;;21.00;59.80;;;;;;5064127;28;20188;-85
2021/06/08 02:08:41;;;;;;;12.43;11.23;;;21.00;59.80;;;;;;5064553;28;20185;-86
2021/06/08 02:11:25;;;;;;;13.05;11.75;;;21.00;59.90;;;;;;5080476;28;20162;-84
2021/06/08 02:14:02;;;;;;;12.38;11.10;;;21.00;59.90;;;;;;5080241;28;20296;-84
2021/06/08 02:16:36;;;;;;;12.13;10.93;;;21.00;59.80;;;;;;5047777;28;20663;-84
2021/06/08 02:19:03;;;;;;;13.32;12.00;;;21.00;59.80;;;;;;5046679;28;20181;-85
2021/06/08 02:21:34;;;;;;;12.07;10.88;;;21.00;59.90;;;;;;5063034;28;20674;-85
2021/06/08 02:24:02;;;;;;;13.00;11.70;;;21.00;59.90;;;;;;5046165;28;20196;-85
2021/06/08 02:26:33;;;;;;;14.32;11.75;;;21.00;59.90;;;;;;5081019;28;20182;-85
2021/06/08 02:29:00;;;;;;;12.95;11.65;;;21.00;59.90;;;;;;5080414;28;20185;-85
2021/06/08 02:31:27;;;;;;;11.93;10.80;;;20.90;60.00;;;;;;5063262;28;20181;-84
2021/06/08 02:33:54;;;;;;;13.32;11.93;;;21.00;59.90;;;;;;5080497;28;20181;-85
2021/06/08 02:36:22;;;;;;;12.93;11.63;;;21.00;59.90;;;;;;5080672;28;20150;-85
2021/06/08 02:38:53;;;;;;;12.32;11.13;;;21.00;60.00;;;;;;5079416;28;20662;-85
2021/06/08 02:41:22;;;;;;;13.20;11.90;;;21.00;60.00;;;;;;5063130;28;20181;-84
2021/06/08 02:43:48;;;;;;;13.13;11.82;;;20.90;59.90;;;;;;5045772;28;20185;-85
2021/06/08 02:46:17;;;;;;;12.88;11.68;;;21.00;60.00;;;;;;5080327;28;20181;-84
2021/06/08 02:48:46;;;;;;;13.20;11.90;;;21.00;60.00;;;;;;5079645;28;20177;-84
2021/06/08 02:51:11;;;;;;;12.73;11.50;;;20.90;59.90;;;;;;5062401;28;20281;-84
2021/06/08 02:53:40;;;;;;;13.20;11.90;;;21.00;60.00;;;;;;5063699;28;20220;-84
2021/06/08 02:56:10;;;;;;;12.90;11.60;;;21.00;60.00;;;;;;5078785;28;20181;-85
2021/06/08 02:58:38;;;;;;;12.88;11.55;;;21.00;60.10;;;;;;5062042;28;20177;-84
2021/06/08 03:01:07;;;;;;;12.75;11.55;;;21.00;60.00;;;;;;5061951;28;20177;-85
2021/06/08 03:03:39;;;;;;;13.00;11.70;;;21.00;60.10;;;;;;5062145;28;20177;-84
2021/06/08 03:06:12;;;;;;;12.88;11.57;;;20.90;60.10;;;;;;5061926;28;20188;-84
2021/06/08 03:08:47;;;;;;;12.55;11.27;;;20.90;60.10;;;;;;5061566;28;20190;-84
2021/06/08 03:11:21;;;;;;;13.35;12.05;;;21.00;60.20;;;;;;5078511;28;20181;-84
2021/06/08 03:13:49;;;;;;;12.32;11.13;;;20.90;60.20;;;;;;5061987;28;20204;-84
2021/06/08 03:16:17;;;;;;;13.35;11.95;;;20.90;60.10;;;;;;5078128;28;20181;-84
2021/06/08 03:18:48;;;;;;;13.48;12.07;;;20.90;60.10;;;;;;5078817;28;20185;-84
2021/06/08 03:21:22;;;;;;;13.20;11.90;;;20.90;60.20;;;;;;5045114;28;20180;-85
2021/06/08 03:23:54;;;;;;;13.27;11.93;;;20.90;60.20;;;;;;5078960;28;20188;-84
2021/06/08 03:26:22;;;;;;;12.80;11.50;;;20.90;60.20;;;;;;5062428;28;20178;-84
2021/06/08 03:28:51;;;;;;;13.45;12.07;;;20.90;60.10;;;;;;5061721;28;20176;-85
2021/06/08 03:31:19;;;;;;;12.57;11.27;;;20.90;60.20;;;;;;5061904;28;20178;-84
2021/06/08 03:33:47;;;;;;;13.43;12.10;;;20.90;60.20;;;;;;5061894;28;20209;-86
2021/06/08 03:36:18;;;;;;;13.07;11.75;;;20.90;60.20;;;;;;5061432;28;20181;-84
2021/06/08 03:38:46;;;;;;;13.18;11.88;;;20.90;60.20;;;;;;5078397;28;20589;-84
2021/06/08 03:41:14;;;;;;;12.43;11.18;;;20.90;60.20;;;;;;5061766;28;20178;-84
2021/06/08 03:43:42;;;;;;;12.13;10.93;;;20.90;60.30;;;;;;5061977;28;20189;-84
2021/06/08 03:46:12;;;;;;;12.65;11.35;;;20.90;60.30;;;;;;5061999;28;20181;-86
2021/06/08 03:48:40;;;;;;;12.82;11.52;;;20.90;60.30;;;;;;5078332;28;20651;-85
2021/06/08 03:51:05;;;;;;;13.02;11.68;;;20.80;60.20;;;;;;5061219;28;20232;-85
2021/06/08 03:53:33;;;;;;;12.88;11.65;;;20.80;60.20;;;;;;5078731;28;20194;-86
2021/06/08 03:56:14;;;;;;;12.77;11.48;;;20.80;60.30;;;;;;5064378;28;20293;-84
2021/06/08 03:58:42;;;;;;;12.50;11.20;;;20.90;60.30;;;;;;5078537;28;20187;-85
2021/06/08 04:01:09;;;;;;;13.15;11.85;;;20.90;60.30;;;;;;5045077;28;20188;-85
2021/06/08 04:03:36;;;;;;;13.48;12.13;;;20.90;60.30;;;;;;5045003;28;20656;-84
2021/06/08 04:06:03;;;;;;;12.65;11.35;;;20.90;60.30;;;;;;5061652;28;20211;-85
2021/06/08 04:08:31;;;;;;;13.27;11.98;;;20.80;60.30;;;;;;5077761;28;20203;-84
2021/06/08 04:11:01;;;;;;;13.23;11.93;;;20.90;60.40;;;;;;5077849;28;20268;-84
2021/06/08 04:13:31;;;;;;;13.50;12.10;;;20.90;61.00;;;;;;5061290;28;20224;-84
2021/06/08 04:15:59;;;;;;;12.75;11.45;;;20.90;61.80;;;;;;5061785;28;20183;-84
2021/06/08 04:18:30;;;;;;;13.48;11.25;;;20.90;62.70;;;;;;5061058;28;20173;-84
2021/06/08 04:20:59;;;;;;;12.70;11.45;;;21.00;63.40;;;;;;5079252;28;20207;-84
2021/06/08 04:23:31;;;;;;;12.52;11.27;;;20.90;64.20;;;;;;5079131;28;20246;-84
2021/06/08 04:26:01;;;;;;;12.23;11.02;;;20.90;64.90;;;;;;5045626;28;20644;-84
2021/06/08 04:28:30;;;;;;;12.50;11.23;;;20.80;66.00;;;;;;5078100;28;20227;-85
2021/06/08 04:30:56;;;;;;;12.05;10.85;;;20.80;66.80;;;;;;5061170;28;20195;-85
2021/06/08 04:33:23;;;;;;;11.48;10.38;;;20.70;67.10;;;;;;5060766;28;20193;-84
2021/06/08 04:35:52;;;;;;;11.98;10.88;;;20.70;67.60;;;;;;5078532;28;20165;-83
2021/06/08 04:38:22;;;;;;;12.43;11.13;;;20.60;67.80;;;;;;5060584;28;20177;-84
2021/06/08 04:40:51;;;;;;;12.48;11.20;;;20.60;68.00;;;;;;5060941;28;20180;-85
2021/06/08 04:43:25;;;;;;;12.30;11.10;;;20.60;68.50;;;;;;5077105;28;20750;-85
2021/06/08 04:45:53;;;;;;;12.60;11.32;;;20.60;69.20;;;;;;5059949;28;20180;-83
2021/06/08 04:48:24;;;;;;;11.70;10.55;;;20.50;69.30;;;;;;5060573;28;20616;-84
2021/06/08 04:50:51;;;;;;;12.30;11.02;;;20.50;69.70;;;;;;5059992;28;20243;-84
2021/06/08 04:53:17;;;;;;;11.88;10.75;;;20.50;69.60;;;;;;5077726;28;20197;-84
2021/06/08 04:55:45;;;;;;;11.45;10.25;;;20.70;69.40;;;;;;5060156;28;20168;-85
2021/06/08 04:58:12;;;;;;;11.45;10.30;;;20.60;69.90;;;;;;5060648;28;20185;-85
2021/06/08 05:01:10;;;;;;;11.57;10.43;;;20.70;70.10;;;;;;5038939;28;20521;-84
2021/06/08 05:03:46;;;;;;;11.82;10.68;;;20.60;70.10;;;;;;5037508;28;20186;-85
2021/06/08 05:06:16;;;;;;;10.75;9.65;;;20.60;70.70;;;;;;5037182;28;20292;-84
2021/06/08 05:08:50;;;;;;;11.88;10.68;;;20.50;71.10;;;;;;5053584;28;20661;-84
2021/06/08 05:11:25;;;;;;;11.85;10.65;;;20.50;71.00;;;;;;5054314;28;20190;-84
2021/06/08 05:13:55;;;;;;;12.10;10.90;;;20.50;72.20;;;;;;5053304;28;20210;-84
2021/06/08 05:16:26;;;;;;;12.10;10.90;;;20.50;71.60;;;;;;5037341;28;20185;-85
2021/06/08 05:18:57;;;;;;;11.85;10.68;;;20.50;71.90;;;;;;5054007;28;20182;-83
2021/06/08 05:21:27;;;;;;;11.07;9.98;;;20.50;72.10;;;;;;5037241;28;20175;-84
2021/06/08 05:23:57;;;;;;;11.35;10.25;;;20.50;72.50;;;;;;5021026;28;20676;-84
2021/06/08 05:26:25;;;;;;;12.02;10.82;;;20.50;72.50;;;;;;5054848;28;20207;-84
2021/06/08 05:28:53;;;;;;;12.25;10.95;;;20.50;72.60;;;;;;5039615;28;20182;-84
2021/06/08 05:31:21;;;;;;;12.60;11.40;;;20.40;72.90;;;;;;5056508;28;20262;-84
2021/06/08 05:33:56;;;;;;;11.32;10.13;;;20.50;73.00;;;;;;5040660;28;20559;-84
2021/06/08 05:36:31;;;;;;;11.73;10.52;;;20.50;73.20;;;;;;5021543;28;20224;-84
2021/06/08 05:38:59;;;;;;;11.60;10.40;;;20.40;73.50;;;;;;5054679;28;20521;-84
2021/06/08 05:41:28;;;;;;;11.20;10.10;;;20.40;73.50;;;;;;5054340;28;20187;-85
2021/06/08 05:43:55;;;;;;;11.68;10.57;;;20.40;73.70;;;;;;5054548;28;20171;-85
2021/06/08 05:46:26;;;;;;;11.75;10.63;;;20.50;73.40;;;;;;5054930;28;20256;-84
2021/06/08 05:48:53;;;;;;;11.00;9.90;;;20.60;73.10;;;;;;5056152;28;20190;-85
2021/06/08 05:51:19;;;;;;;12.02;10.82;;;20.60;73.00;;;;;;5048734;28;20240;-84
2021/06/08 05:53:47;;;;;;;11.57;10.45;;;20.60;72.80;;;;;;5043008;28;20673;-84
2021/06/08 05:56:14;;;;;;;12.25;11.00;;;20.60;72.60;;;;;;5059414;28;20214;-84
2021/06/08 05:58:41;;;;;;;11.55;10.38;;;20.60;72.90;;;;;;5042184;28;20251;-84
2021/06/08 06:01:10;;;;;;;11.57;10.45;;;20.50;72.90;;;;;;5058944;28;20220;-84
2021/06/08 06:03:38;;;;;;;10.77;9.68;;;20.50;73.20;;;;;;5026212;28;20192;-85
2021/06/08 06:06:05;;;;;;;10.80;9.80;;;20.50;73.00;;;;;;5041903;28;20181;-85
2021/06/08 06:08:32;;;;;;;12.48;11.18;;;20.50;73.20;;;;;;5043110;28;20208;-83
2021/06/08 06:11:00;;;;;;;11.20;10.10;;;20.50;73.30;;;;;;5042739;28;20219;-85
2021/06/08 06:13:28;;;;;;;11.85;10.65;;;20.50;73.30;;;;;;5031046;28;20213;-83
2021/06/08 06:15:56;;;;;;;12.13;10.93;;;20.40;73.40;;;;;;5048119;28;20530;-82
2021/06/08 06:18:25;;;;;;;11.38;10.18;;;20.30;73.60;;;;;;5064653;28;20173;-83
2021/06/08 06:20:52;;;;;;;11.77;10.57;;;20.40;73.50;;;;;;5079827;28;20193;-82
2021/06/08 06:23:19;;;;;;;10.98;9.88;;;20.50;73.80;;;;;;5081981;28;20153;-82
2021/06/08 06:25:45;;;;;;;10.45;9.45;;;20.60;72.50;;;;;;5081724;28;20149;-81
2021/06/08 06:28:12;;;;;;;13.00;11.70;;;20.70;71.80;;;;;;5084342;28;20152;-81
2021/06/08 06:30:38;;;;;;;12.35;11.15;;;20.70;71.50;;;;;;5076783;28;20150;-81
2021/06/08 06:33:08;;;;;;;13.93;11.30;;;20.60;71.60;;;;;;5058602;28;20196;-81
2021/06/08 06:35:34;;;;;;;12.10;10.90;;;20.60;71.60;;;;;;5078312;28;20193;-81
2021/06/08 06:38:05;;;;;;;12.82;11.52;;;20.50;71.60;;;;;;5078003;28;20544;-80
2021/06/08 06:40:32;;;;;;;12.75;11.50;;;20.70;71.30;;;;;;5064619;28;20185;-81
2021/06/08 06:43:02;;;;;;;12.77;11.48;;;20.70;71.10;;;;;;5078651;28;20150;-79
2021/06/08 06:45:29;;;;;;;13.05;11.75;;;20.70;71.00;;;;;;5084165;28;20175;-82
2021/06/08 06:48:02;;;;;;;11.98;10.77;;;20.70;70.90;;;;;;5050835;28;20166;-81
2021/06/08 06:50:30;;;;;;;13.07;11.63;;;20.70;70.90;;;;;;5056104;28;20637;-81
2021/06/08 06:52:57;;;;;;;12.43;11.15;;;20.70;70.70;;;;;;5088853;28;20158;-83
2021/06/08 06:55:28;;;;;;;12.80;11.50;;;20.80;70.60;;;;;;5086753;28;20499;-85
2021/06/08 06:57:57;;;;;;;13.10;11.80;;;20.80;70.40;;;;;;5079010;28;20215;-83
2021/06/08 07:00:27;;;;;;;12.48;11.25;;;20.80;70.10;;;;;;5063780;28;20204;-85
2021/06/08 07:02:54;;;;;;;12.77;11.48;;;20.80;70.30;;;;;;5064664;28;20176;-83
2021/06/08 07:05:25;;;;;;;12.50;11.20;;;20.80;70.20;;;;;;5096149;28;20183;-83
2021/06/08 07:07:53;;;;;;;12.55;11.35;;;20.80;69.90;;;;;;5043050;28;20500;-82
2021/06/08 07:10:22;;;;;;;13.13;11.73;;;20.80;69.70;;;;;;5061136;28;20651;-80
2021/06/08 07:12:54;;;;;;;12.90;11.60;;;20.80;69.80;;;;;;5079991;28;20172;-82
2021/06/08 07:15:26;;;;;;;12.57;11.27;;;20.80;69.50;;;;;;5060663;28;20658;-82
2021/06/08 07:17:55;;;;;;;12.25;11.05;;;20.80;69.90;;;;;;5060151;28;20692;-82
2021/06/08 07:20:24;;;;;;;12.77;11.48;;;20.80;69.90;;;;;;5042946;28;20185;-83
2021/06/08 07:22:50;;;;;;;12.80;11.50;;;20.80;69.80;;;;;;5071445;28;20543;-83
2021/06/08 07:25:22;;;;;;;12.52;11.23;;;20.80;69.60;;;;;;5059435;28;20681;-85
2021/06/08 07:28:07;;;;;;;12.52;11.32;;;20.90;69.50;;;;;;5076852;28;20181;-82
2021/06/08 07:30:38;;;;;;;12.32;11.13;;;20.90;69.40;;;;;;5038458;28;20180;-83
2021/06/08 07:33:27;;;;;;;13.43;12.00;;;21.00;69.00;;;;;;5045613;28;20180;-84
2021/06/08 07:36:03;;;;;;;13.05;11.65;;;21.00;68.80;;;;;;5060878;28;20314;-82
2021/06/08 07:38:35;;;;;;;12.23;11.00;;;21.00;70.00;;;;;;5075609;28;20635;-83
2021/06/08 07:41:04;;;;;;;12.43;11.13;;;20.90;69.10;;;;;;5076448;28;20163;-83
2021/06/08 07:43:35;;;;;;;13.05;11.75;;;21.00;69.30;;;;;;5061475;28;20654;-83
2021/06/08 07:46:05;;;;;;;12.77;11.48;;;20.90;69.20;;;;;;5060841;28;20644;-82
2021/06/08 07:48:33;;;;;;;13.25;11.93;;;20.90;69.40;;;;;;5066678;28;20180;-83
2021/06/08 07:50:58;;;;;;;14.07;12.23;;;20.90;69.20;;;;;;5077225;28;20232;-85
2021/06/08 07:53:30;;;;;;;14.48;11.82;;;21.00;69.20;;;;;;5074835;28;20211;-83
2021/06/08 07:55:56;;;;;;;13.25;11.90;;;20.90;69.20;;;;;;5026232;28;20650;-82
2021/06/08 07:58:23;;;;;;;12.30;11.07;;;20.90;69.30;;;;;;5079599;28;20293;-81
2021/06/08 08:00:50;;;;;;;13.50;11.40;;;21.00;69.00;;;;;;5092457;28;20145;-83
2021/06/08 08:03:26;;;;;;;13.90;11.65;;;21.00;69.00;;;;;;5091536;28;20560;-84
2021/06/08 08:06:09;;;;;;;13.02;11.52;;;21.00;68.90;;;;;;5076291;28;20149;-82
2021/06/08 08:08:35;;;;;;;14.80;11.40;;;21.00;68.60;;;;;;5089571;28;20240;-79
2021/06/08 08:11:05;;;;;;;17.67;11.82;;;21.00;68.70;;;;;;5097525;28;20188;-82
2021/06/08 08:13:36;;;;;;;13.05;11.65;;;21.10;68.70;;;;;;5098931;28;20302;-81
2021/06/08 08:16:04;;;;;;;14.73;11.63;;;21.00;68.80;;;;;;5066536;28;20240;-79
2021/06/08 08:18:35;;;;;;;13.13;11.45;;;21.00;68.50;;;;;;5079590;28;20240;-84
2021/06/08 08:21:02;;;;;;;13.00;11.57;;;21.10;68.30;;;;;;5078747;28;20176;-83
2021/06/08 08:23:29;;;;;;;14.13;11.57;;;21.10;68.40;;;;;;5099295;28;20163;-81
2021/06/08 08:26:01;;;;;;;14.35;11.55;;;21.20;68.20;;;;;;5084081;28;20597;-85
2021/06/08 08:28:33;;;;;;;18.52;11.15;;;21.20;68.30;;;;;;5084657;28;20265;-83
2021/06/08 08:31:05;;;;;;;18.13;12.23;;;21.20;68.20;;;;;;5067255;28;20204;-79
2021/06/08 08:33:35;;;;;;;21.92;12.43;;;21.20;68.10;;;;;;5103777;28;20212;-79
2021/06/08 08:36:01;;;;;;;21.67;12.60;;;21.10;68.30;;;;;;5067295;28;20377;-82
2021/06/08 08:38:31;;;;;;;26.10;12.30;;;21.10;68.30;;;;;;5087569;28;20157;-79
2021/06/08 08:40:58;;;;;;;29.30;12.65;;;21.10;68.20;;;;;;5085515;28;20618;-87
2021/06/08 08:43:25;;;;;;;30.25;12.07;;;21.10;68.30;;;;;;5080281;28;20680;-78
2021/06/08 08:45:51;;;;;;;39.28;12.52;;;21.10;68.20;;;;;;5065430;28;20243;-85
2021/06/08 08:48:19;;;;;;;43.60;12.75;;;21.10;68.20;;;;;;5102129;28;20168;-78
2021/06/08 08:50:46;;;;;;;42.58;13.57;;;21.10;69.20;;;;;;5120535;28;20235;-80
2021/06/08 08:53:18;;;;;;;47.03;13.80;;;21.20;68.00;;;;;;5081262;28;20173;-79
2021/06/08 08:55:47;;;;;;;52.92;13.10;;;21.20;68.20;;;;;;5066661;28;20176;-83
2021/06/08 08:58:17;;;;;;;49.47;13.80;;;21.00;68.20;;;;;;5063520;28;20199;-86
2021/06/08 09:00:47;;;;;;;48.90;13.13;;;21.10;68.30;;;;;;5064522;28;20195;-79
2021/06/08 09:03:18;;;;;;;34.00;13.02;;;21.10;68.40;;;;;;5077683;28;20653;-83
2021/06/08 09:05:46;;;;;;;35.13;12.75;;;21.10;68.20;;;;;;5042661;28;20184;-83
2021/06/08 09:08:14;;;;;;;38.70;12.10;;;21.20;68.00;;;;;;5087326;28;20176;-79
2021/06/08 09:10:43;;;;;;;31.92;12.10;;;21.20;67.90;;;;;;5101381;28;20239;-82
2021/06/08 09:13:11;;;;;;;26.35;12.27;;;21.20;67.90;;;;;;5080139;28;20181;-83
2021/06/08 09:15:39;;;;;;;30.23;12.98;;;21.10;67.70;;;;;;5078821;28;20212;-85
2021/06/08 09:18:08;;;;;;;30.17;11.50;;;21.20;68.00;;;;;;5078537;28;20237;-85
2021/06/08 09:20:37;;;;;;;30.88;12.68;;;21.20;67.70;;;;;;5079834;28;20181;-86
2021/06/08 09:23:07;;;;;;;28.85;12.10;;;21.30;67.90;;;;;;5080627;28;20180;-86
2021/06/08 09:25:41;;;;;;;32.25;12.23;;;21.30;68.10;;;;;;5051372;28;20187;-79
2021/06/08 09:28:26;;;;;;;28.83;12.05;;;21.20;68.10;;;;;;5068949;28;20180;-82
2021/06/08 09:31:18;;;;;;;24.08;12.00;;;21.20;68.20;;;;;;5086539;28;20212;-82
2021/06/08 09:33:50;;;;;;;27.73;12.50;;;21.30;68.00;;;;;;5074073;28;20660;-83
2021/06/08 09:36:19;;;;;;;26.83;11.80;;;21.20;68.20;;;;;;5083819;28;20720;-78
2021/06/08 09:38:52;;;;;;;28.33;12.27;;;21.30;67.90;;;;;;5069488;28;20183;-82
2021/06/08 09:41:29;;;;;;;20.00;11.38;;;21.30;67.80;;;;;;5089249;28;20211;-81
2021/06/08 09:43:59;;;;;;;20.13;12.30;;;21.20;68.90;;;;;;5103070;27;20181;-82
2021/06/08 09:46:44;;;;;;;23.73;11.82;;;21.20;68.00;;;;;;5071253;28;20210;-84
2021/06/08 09:49:16;;;;;;;19.70;12.15;;;21.20;68.00;;;;;;5069717;28;20229;-83
2021/06/08 09:51:56;;;;;;;25.15;12.10;;;21.20;67.90;;;;;;5063854;28;20322;-81
2021/06/08 09:54:29;;;;;;;21.73;12.90;;;21.20;67.90;;;;;;5113032;28;20267;-81
2021/06/08 09:57:16;;;;;;;19.83;12.00;;;21.30;67.90;;;;;;5046931;28;20176;-83
2021/06/08 10:00:00;;;;;;;18.23;11.15;;;21.30;67.80;;;;;;5079889;28;20639;-81
2021/06/08 10:02:34;;;;;;;20.02;11.45;;;21.30;67.70;;;;;;5041531;28;20181;-83
2021/06/08 10:05:16;;;;;;;25.23;12.18;;;21.30;67.50;;;;;;5057905;28;20173;-82
2021/06/08 10:07:43;;;;;;;26.58;12.13;;;21.40;67.50;;;;;;5075182;28;20150;-81
2021/06/08 10:10:13;;;;;;;16.00;11.18;;;21.40;67.40;;;;;;5057174;28;20173;-83
2021/06/08 10:13:03;;;;;;;19.20;11.05;;;21.30;67.50;;;;;;5075716;28;20631;-81
2021/06/08 10:15:31;;;;;;;19.33;11.38;;;21.30;67.50;;;;;;5074499;28;20181;-83
2021/06/08 10:17:59;;;;;;;21.25;11.60;;;21.30;67.60;;;;;;5057684;28;20169;-83
2021/06/08 10:20:29;;;;;;;18.25;11.48;;;21.30;67.50;;;;;;5075712;28;20149;-80
2021/06/08 10:23:02;;;;;;;19.50;11.27;;;21.30;67.60;;;;;;5077912;28;20204;-80
2021/06/08 10:25:29;;;;;;;18.27;11.63;;;21.30;67.60;;;;;;5045602;28;20201;-80
2021/06/08 10:27:56;;;;;;;20.05;11.43;;;21.30;67.60;;;;;;5080832;28;20158;-82
2021/06/08 10:30:26;;;;;;;18.33;11.88;;;21.30;67.50;;;;;;5061739;28;20172;-82
2021/06/08 10:32:52;;;;;;;14.40;10.85;;;21.20;67.70;;;;;;5044868;28;20605;-81
2021/06/08 10:35:18;;;;;;;19.35;11.82;;;21.30;67.40;;;;;;5078150;28;20205;-80
2021/06/08 10:37:44;;;;;;;13.18;10.23;;;21.30;67.30;;;;;;5060833;28;20161;-81
2021/06/08 10:40:10;;;;;;;17.17;11.60;;;21.30;67.50;;;;;;5078724;28;20165;-81
2021/06/08 10:42:36;;;;;;;21.67;11.68;;;21.30;67.50;;;;;;5080171;28;20621;-80
2021/06/08 10:45:09;;;;;;;14.60;11.13;;;21.20;67.40;;;;;;5076772;28;20161;-80
2021/06/08 10:47:40;;;;;;;15.75;10.88;;;21.20;67.70;;;;;;5041964;28;20188;-79
2021/06/08 10:50:27;;;;;;;14.48;10.55;;;21.10;67.80;;;;;;5060972;28;20169;-82
2021/06/08 10:52:56;;;;;;;19.27;11.15;;;21.20;67.70;;;;;;5078245;28;20181;-80
2021/06/08 10:55:33;;;;;;;15.38;11.15;;;21.30;67.40;;;;;;5080009;28;20196;-80
2021/06/08 10:57:59;;;;;;;18.40;11.45;;;21.30;67.40;;;;;;5048006;28;20260;-80
2021/06/08 11:00:51;;;;;;;18.77;11.13;;;21.30;67.50;;;;;;5081852;28;20582;-81
2021/06/08 11:03:16;;;;;;;15.63;10.52;;;21.40;67.20;;;;;;5079302;28;20145;-82
2021/06/08 11:05:48;;;;;;;15.38;11.35;;;21.30;67.20;;;;;;5080631;28;20566;-83
2021/06/08 11:08:14;;;;;;;16.48;11.27;;;21.40;67.10;;;;;;5062126;28;20226;-83
2021/06/08 11:10:51;;;;;;;13.98;10.68;;;21.40;67.20;;;;;;5078873;28;20173;-78
2021/06/08 11:13:40;;;;;;;15.93;10.32;;;21.40;67.20;;;;;;5080369;28;20149;-80
2021/06/08 11:16:27;;;;;;;13.18;10.73;;;21.40;66.90;;;;;;5080584;28;20150;-81
2021/06/08 11:18:53;;;;;;;14.20;10.60;;;21.50;66.70;;;;;;5080088;28;20177;-83
2021/06/08 11:21:24;;;;;;;14.00;10.90;;;21.40;66.90;;;;;;5078723;28;20674;-81
2021/06/08 11:23:50;;;;;;;16.83;10.98;;;21.50;66.80;;;;;;5077896;28;20161;-80
2021/06/08 11:26:39;;;;;;;14.35;10.63;;;21.50;66.70;;;;;;5078509;28;20187;-83
2021/06/08 11:29:07;;;;;;;16.45;10.80;;;21.40;66.60;;;;;;5063609;28;20181;-81
2021/06/08 11:31:49;;;;;;;19.67;10.65;;;21.50;66.50;;;;;;5078040;28;20567;-79
2021/06/08 11:34:15;;;;;;;15.15;10.73;;;21.50;66.30;;;;;;5075015;28;20674;-82
2021/06/08 11:36:41;;;;;;;14.95;10.80;;;21.50;66.30;;;;;;5076445;28;20158;-80
2021/06/08 11:39:25;;;;;;;13.68;10.00;;;21.50;66.10;;;;;;5077124;28;20157;-79
2021/06/08 11:41:56;;;;;;;14.77;10.98;;;21.50;66.10;;;;;;5076377;28;20145;-80
2021/06/08 11:44:22;;;;;;;12.18;10.63;;;21.50;66.10;;;;;;5075404;28;20186;-82
2021/06/08 11:46:53;;;;;;;13.10;10.63;;;21.50;66.00;;;;;;5075386;28;20161;-81
2021/06/08 11:49:23;;;;;;;13.98;10.77;;;21.50;66.50;;;;;;5057180;28;20187;-82
2021/06/08 11:51:54;;;;;;;14.25;11.18;;;21.50;66.60;;;;;;5057643;28;20221;-82
2021/06/08 11:54:33;;;;;;;14.45;10.80;;;21.50;66.70;;;;;;5074950;28;20185;-81
2021/06/08 11:57:00;;;;;;;13.73;10.98;;;21.40;66.80;;;;;;5075168;28;20169;-82
2021/06/08 11:59:30;;;;;;;13.32;10.40;;;21.50;66.70;;;;;;5073857;28;20203;-79
2021/06/08 12:02:00;;;;;;;12.45;10.57;;;21.50;66.50;;;;;;5058829;28;20583;-81
2021/06/08 12:04:28;;;;;;;12.32;10.88;;;21.60;66.60;;;;;;5076827;28;20153;-79
2021/06/08 12:07:03;;;;;;;12.43;10.93;;;21.60;66.20;;;;;;5077721;28;20157;-81
2021/06/08 12:09:34;;;;;;;11.50;10.27;;;21.50;66.30;;;;;;5059434;28;20256;-80
2021/06/08 12:12:04;;;;;;;12.43;10.25;;;21.60;66.10;;;;;;5043820;28;20617;-79
2021/06/08 12:14:30;;;;;;;12.27;10.20;;;21.60;66.00;;;;;;5061092;28;20574;-79
2021/06/08 12:17:01;;;;;;;13.68;11.00;;;21.60;66.10;;;;;;5077278;28;20150;-80
2021/06/08 12:19:29;;;;;;;13.50;10.57;;;21.60;66.10;;;;;;5042731;28;20185;-82
2021/06/08 12:21:56;;;;;;;12.05;10.75;;;21.60;66.20;;;;;;5077805;28;20157;-80
2021/06/08 12:24:22;;;;;;;14.55;10.40;;;21.60;66.20;;;;;;5077283;28;20149;-79
2021/06/08 12:26:53;;;;;;;15.40;10.68;;;21.50;66.30;;;;;;5076575;28;20150;-80
2021/06/08 12:29:18;;;;;;;14.30;10.35;;;21.50;66.30;;;;;;5077138;28;20161;-82
2021/06/08 12:32:04;;;;;;;11.25;10.05;;;21.60;66.10;;;;;;5075430;28;20215;-81
2021/06/08 12:34:37;;;;;;;12.02;10.38;;;21.50;66.10;;;;;;5074284;28;20230;-82
2021/06/08 12:37:07;;;;;;;13.98;11.23;;;21.60;66.10;;;;;;5042047;28;20188;-81
2021/06/08 12:39:34;;;;;;;13.45;10.95;;;21.60;66.10;;;;;;5039305;28;20226;-82
2021/06/08 12:42:08;;;;;;;12.82;10.40;;;21.60;66.00;;;;;;5075420;28;20181;-82
2021/06/08 12:44:35;;;;;;;13.38;10.40;;;21.60;66.10;;;;;;5057491;28;20169;-80